sensor_id;sensor_type;location;lat;lon;timestamp;temperature;humidity
50544;DHT22;41176;44.032;20.900;2024-03-08T00:02:24;7.30;99.90
50544;DHT22;41176;44.032;20.900;2024-03-08T00:04:50;7.40;99.90
50544;DHT22;41176;44.032;20.900;2024-03-08T00:07:16;7.40;99.90
50544;DHT22;41176;44.032;20.900;2024-03-08T00:09:41;7.40;99.90
50544;DHT22;41176;44.032;20.900;2024-03-08T00:12:07;7.30;99.90
50544;DHT22;41176;44.032;20.900;2024-03-08T00:14:35;7.30;99.90
50544;DHT22;41176;44.032;20.900;2024-03-08T00:17:03;7.30;99.90
50544;DHT22;41176;44.032;20.900;2024-03-08T00:19:28;7.30;99.90
50544;DHT22;41176;44.032;20.900;2024-03-08T00:21:54;7.20;99.90
50544;DHT22;41176;44.032;20.900;2024-03-08T00:24:20;7.20;99.90
50544;DHT22;41176;44.032;20.900;2024-03-08T00:26:50;7.20;99.90
50544;DHT22;41176;44.032;20.900;2024-03-08T00:29:16;7.10;99.90
50544;DHT22;41176;44.032;20.900;2024-03-08T00:31:41;7.10;99.90
50544;DHT22;41176;44.032;20.900;2024-03-08T00:34:07;7.10;99.90
50544;DHT22;41176;44.032;20.900;2024-03-08T00:36:35;7.00;99.90
50544;DHT22;41176;44.032;20.900;2024-03-08T00:39:01;7.10;99.90
50544;DHT22;41176;44.032;20.900;2024-03-08T00:41:27;7.00;99.90
50544;DHT22;41176;44.032;20.900;2024-03-08T00:43:53;7.10;99.90
50544;DHT22;41176;44.032;20.900;2024-03-08T00:46:19;7.10;99.90
50544;DHT22;41176;44.032;20.900;2024-03-08T00:48:45;7.00;99.90
50544;DHT22;41176;44.032;20.900;2024-03-08T00:51:10;7.00;99.90
50544;DHT22;41176;44.032;20.900;2024-03-08T00:53:36;7.10;99.90
50544;DHT22;41176;44.032;20.900;2024-03-08T00:56:02;7.10;99.90
50544;DHT22;41176;44.032;20.900;2024-03-08T00:58:29;7.10;99.90
50544;DHT22;41176;44.032;20.900;2024-03-08T01:00:56;7.10;99.90
50544;DHT22;41176;44.032;20.900;2024-03-08T01:03:22;7.00;99.90
50544;DHT22;41176;44.032;20.900;2024-03-08T01:05:48;7.00;99.90
50544;DHT22;41176;44.032;20.900;2024-03-08T01:08:14;7.00;99.90
50544;DHT22;41176;44.032;20.900;2024-03-08T01:10:39;6.90;99.90
50544;DHT22;41176;44.032;20.900;2024-03-08T01:13:05;7.00;99.90
50544;DHT22;41176;44.032;20.900;2024-03-08T01:15:31;7.00;99.90
50544;DHT22;41176;44.032;20.900;2024-03-08T01:17:56;7.00;99.90
50544;DHT22;41176;44.032;20.900;2024-03-08T01:20:22;7.00;99.90
50544;DHT22;41176;44.032;20.900;2024-03-08T01:22:48;7.10;99.90
50544;DHT22;41176;44.032;20.900;2024-03-08T01:25:14;7.00;99.90
50544;DHT22;41176;44.032;20.900;2024-03-08T01:27:39;7.00;99.90
50544;DHT22;41176;44.032;20.900;2024-03-08T01:30:06;7.10;99.90
50544;DHT22;41176;44.032;20.900;2024-03-08T01:32:32;7.10;99.90
50544;DHT22;41176;44.032;20.900;2024-03-08T01:34:57;7.10;99.90
50544;DHT22;41176;44.032;20.900;2024-03-08T01:37:23;7.10;99.90
50544;DHT22;41176;44.032;20.900;2024-03-08T01:39:49;7.10;99.90
50544;DHT22;41176;44.032;20.900;2024-03-08T01:42:15;7.10;99.90
50544;DHT22;41176;44.032;20.900;2024-03-08T01:44:43;7.10;99.90
50544;DHT22;41176;44.032;20.900;2024-03-08T01:47:10;7.00;99.90
50544;DHT22;41176;44.032;20.900;2024-03-08T01:49:37;7.00;99.90
50544;DHT22;41176;44.032;20.900;2024-03-08T01:52:03;7.00;99.90
50544;DHT22;41176;44.032;20.900;2024-03-08T01:54:29;7.00;99.90
50544;DHT22;41176;44.032;20.900;2024-03-08T01:56:56;7.10;99.90
50544;DHT22;41176;44.032;20.900;2024-03-08T01:59:24;7.10;99.90
50544;DHT22;41176;44.032;20.900;2024-03-08T02:01:54;7.10;99.90
50544;DHT22;41176;44.032;20.900;2024-03-08T02:04:20;7.10;99.90
50544;DHT22;41176;44.032;20.900;2024-03-08T02:06:47;7.00;99.90
50544;DHT22;41176;44.032;20.900;2024-03-08T02:09:13;7.10;99.90
50544;DHT22;41176;44.032;20.900;2024-03-08T02:11:41;7.10;99.90
50544;DHT22;41176;44.032;20.900;2024-03-08T02:14:07;7.10;99.90
50544;DHT22;41176;44.032;20.900;2024-03-08T02:16:32;7.20;99.90
50544;DHT22;41176;44.032;20.900;2024-03-08T02:18:58;7.20;99.90
50544;DHT22;41176;44.032;20.900;2024-03-08T02:21:24;7.10;99.90
50544;DHT22;41176;44.032;20.900;2024-03-08T02:23:50;7.00;99.90
50544;DHT22;41176;44.032;20.900;2024-03-08T02:26:17;7.00;99.90
50544;DHT22;41176;44.032;20.900;2024-03-08T02:28:44;7.00;99.90
50544;DHT22;41176;44.032;20.900;2024-03-08T02:31:10;7.10;99.90
50544;DHT22;41176;44.032;20.900;2024-03-08T02:33:36;7.20;99.90
50544;DHT22;41176;44.032;20.900;2024-03-08T02:36:02;7.20;99.90
50544;DHT22;41176;44.032;20.900;2024-03-08T02:38:28;7.10;99.90
50544;DHT22;41176;44.032;20.900;2024-03-08T02:40:54;7.00;99.90
50544;DHT22;41176;44.032;20.900;2024-03-08T02:43:21;6.90;99.90
50544;DHT22;41176;44.032;20.900;2024-03-08T02:45:50;6.90;99.90
50544;DHT22;41176;44.032;20.900;2024-03-08T02:48:18;6.90;99.90
50544;DHT22;41176;44.032;20.900;2024-03-08T02:50:44;6.90;99.90
50544;DHT22;41176;44.032;20.900;2024-03-08T02:53:10;6.90;99.90
50544;DHT22;41176;44.032;20.900;2024-03-08T02:55:40;6.90;99.90
50544;DHT22;41176;44.032;20.900;2024-03-08T02:58:06;6.90;99.90
50544;DHT22;41176;44.032;20.900;2024-03-08T03:00:38;6.90;99.90
50544;DHT22;41176;44.032;20.900;2024-03-08T03:03:05;6.80;99.90
50544;DHT22;41176;44.032;20.900;2024-03-08T03:05:31;6.80;99.90
50544;DHT22;41176;44.032;20.900;2024-03-08T03:07:57;6.80;99.90
50544;DHT22;41176;44.032;20.900;2024-03-08T03:10:26;6.70;99.90
50544;DHT22;41176;44.032;20.900;2024-03-08T03:12:52;6.70;99.90
50544;DHT22;41176;44.032;20.900;2024-03-08T03:15:18;6.80;99.90
50544;DHT22;41176;44.032;20.900;2024-03-08T03:17:49;6.70;99.90
50544;DHT22;41176;44.032;20.900;2024-03-08T03:20:17;6.70;99.90
50544;DHT22;41176;44.032;20.900;2024-03-08T03:22:49;6.70;99.90
50544;DHT22;41176;44.032;20.900;2024-03-08T03:25:21;6.70;99.90
50544;DHT22;41176;44.032;20.900;2024-03-08T03:27:59;6.80;99.90
50544;DHT22;41176;44.032;20.900;2024-03-08T03:30:25;6.70;99.90
50544;DHT22;41176;44.032;20.900;2024-03-08T03:33:02;6.70;99.90
50544;DHT22;41176;44.032;20.900;2024-03-08T03:35:32;6.80;99.90
50544;DHT22;41176;44.032;20.900;2024-03-08T03:37:57;6.80;99.90
50544;DHT22;41176;44.032;20.900;2024-03-08T03:40:36;6.80;99.90
50544;DHT22;41176;44.032;20.900;2024-03-08T03:43:02;6.80;99.90
50544;DHT22;41176;44.032;20.900;2024-03-08T03:45:29;6.80;99.90
50544;DHT22;41176;44.032;20.900;2024-03-08T03:47:54;6.80;99.90
50544;DHT22;41176;44.032;20.900;2024-03-08T03:50:20;6.80;99.90
50544;DHT22;41176;44.032;20.900;2024-03-08T03:52:47;6.90;99.90
50544;DHT22;41176;44.032;20.900;2024-03-08T03:55:14;6.90;99.90
50544;DHT22;41176;44.032;20.900;2024-03-08T03:57:40;6.90;99.90
50544;DHT22;41176;44.032;20.900;2024-03-08T04:00:07;6.90;99.90
50544;DHT22;41176;44.032;20.900;2024-03-08T04:02:40;6.90;99.90
50544;DHT22;41176;44.032;20.900;2024-03-08T04:05:07;6.80;99.90
50544;DHT22;41176;44.032;20.900;2024-03-08T04:07:33;6.70;99.90
50544;DHT22;41176;44.032;20.900;2024-03-08T04:10:03;6.60;99.90
50544;DHT22;41176;44.032;20.900;2024-03-08T04:12:34;6.60;99.90
50544;DHT22;41176;44.032;20.900;2024-03-08T04:15:00;6.60;99.90
50544;DHT22;41176;44.032;20.900;2024-03-08T04:17:26;6.60;99.90
50544;DHT22;41176;44.032;20.900;2024-03-08T04:19:52;6.60;99.90
50544;DHT22;41176;44.032;20.900;2024-03-08T04:22:18;6.60;99.90
50544;DHT22;41176;44.032;20.900;2024-03-08T04:24:44;6.50;99.90
50544;DHT22;41176;44.032;20.900;2024-03-08T04:27:11;6.50;99.90
50544;DHT22;41176;44.032;20.900;2024-03-08T04:29:37;6.40;99.90
50544;DHT22;41176;44.032;20.900;2024-03-08T04:32:04;6.40;99.90
50544;DHT22;41176;44.032;20.900;2024-03-08T04:34:30;6.40;99.90
50544;DHT22;41176;44.032;20.900;2024-03-08T04:37:00;6.30;99.90
50544;DHT22;41176;44.032;20.900;2024-03-08T04:39:26;6.30;99.90
50544;DHT22;41176;44.032;20.900;2024-03-08T04:41:55;6.30;99.90
50544;DHT22;41176;44.032;20.900;2024-03-08T04:44:23;6.30;99.90
50544;DHT22;41176;44.032;20.900;2024-03-08T04:46:50;6.30;99.90
50544;DHT22;41176;44.032;20.900;2024-03-08T04:49:16;6.30;99.90
50544;DHT22;41176;44.032;20.900;2024-03-08T04:51:42;6.30;99.90
50544;DHT22;41176;44.032;20.900;2024-03-08T04:54:08;6.20;99.90
50544;DHT22;41176;44.032;20.900;2024-03-08T04:56:33;6.20;99.90
50544;DHT22;41176;44.032;20.900;2024-03-08T04:58:59;6.30;99.90
50544;DHT22;41176;44.032;20.900;2024-03-08T05:01:25;6.30;99.90
50544;DHT22;41176;44.032;20.900;2024-03-08T05:03:51;6.40;99.90
50544;DHT22;41176;44.032;20.900;2024-03-08T05:06:20;6.40;99.90
50544;DHT22;41176;44.032;20.900;2024-03-08T05:08:46;6.50;99.90
50544;DHT22;41176;44.032;20.900;2024-03-08T05:11:12;6.50;99.90
50544;DHT22;41176;44.032;20.900;2024-03-08T05:13:40;6.40;99.90
50544;DHT22;41176;44.032;20.900;2024-03-08T05:16:06;6.40;99.90
50544;DHT22;41176;44.032;20.900;2024-03-08T05:18:33;6.40;99.90
50544;DHT22;41176;44.032;20.900;2024-03-08T05:20:59;6.40;99.90
50544;DHT22;41176;44.032;20.900;2024-03-08T05:23:25;6.40;99.90
50544;DHT22;41176;44.032;20.900;2024-03-08T05:25:51;6.50;99.90
50544;DHT22;41176;44.032;20.900;2024-03-08T05:28:16;6.50;99.90
50544;DHT22;41176;44.032;20.900;2024-03-08T05:30:42;6.40;99.90
50544;DHT22;41176;44.032;20.900;2024-03-08T05:33:08;6.50;99.90
50544;DHT22;41176;44.032;20.900;2024-03-08T05:35:37;6.50;99.90
50544;DHT22;41176;44.032;20.900;2024-03-08T05:38:03;6.40;99.90
50544;DHT22;41176;44.032;20.900;2024-03-08T05:40:28;6.50;99.90
50544;DHT22;41176;44.032;20.900;2024-03-08T05:42:58;6.50;99.90
50544;DHT22;41176;44.032;20.900;2024-03-08T05:45:25;6.50;99.90
50544;DHT22;41176;44.032;20.900;2024-03-08T05:47:51;6.50;99.90
50544;DHT22;41176;44.032;20.900;2024-03-08T05:50:19;6.40;99.90
50544;DHT22;41176;44.032;20.900;2024-03-08T05:52:46;6.40;99.90
50544;DHT22;41176;44.032;20.900;2024-03-08T05:55:13;6.60;99.90
50544;DHT22;41176;44.032;20.900;2024-03-08T05:57:40;6.60;99.90
50544;DHT22;41176;44.032;20.900;2024-03-08T06:00:08;6.60;99.90
50544;DHT22;41176;44.032;20.900;2024-03-08T06:02:37;6.70;99.90
50544;DHT22;41176;44.032;20.900;2024-03-08T06:05:12;6.70;99.90
50544;DHT22;41176;44.032;20.900;2024-03-08T06:07:38;6.70;99.90
50544;DHT22;41176;44.032;20.900;2024-03-08T06:10:09;6.70;99.90
50544;DHT22;41176;44.032;20.900;2024-03-08T06:12:36;6.70;99.90
50544;DHT22;41176;44.032;20.900;2024-03-08T06:15:09;6.70;99.90
50544;DHT22;41176;44.032;20.900;2024-03-08T06:17:36;6.70;99.90
50544;DHT22;41176;44.032;20.900;2024-03-08T06:20:02;6.80;99.90
50544;DHT22;41176;44.032;20.900;2024-03-08T06:22:29;6.90;99.90
50544;DHT22;41176;44.032;20.900;2024-03-08T06:24:56;7.00;99.90
50544;DHT22;41176;44.032;20.900;2024-03-08T06:27:22;7.10;99.90
50544;DHT22;41176;44.032;20.900;2024-03-08T06:29:47;7.20;99.90
50544;DHT22;41176;44.032;20.900;2024-03-08T06:32:14;7.30;99.90
50544;DHT22;41176;44.032;20.900;2024-03-08T06:34:41;7.30;99.90
50544;DHT22;41176;44.032;20.900;2024-03-08T06:37:06;7.20;99.90
50544;DHT22;41176;44.032;20.900;2024-03-08T06:39:32;7.30;99.90
50544;DHT22;41176;44.032;20.900;2024-03-08T06:41:59;7.40;99.90
50544;DHT22;41176;44.032;20.900;2024-03-08T06:44:25;7.50;99.90
50544;DHT22;41176;44.032;20.900;2024-03-08T06:46:51;7.50;99.90
50544;DHT22;41176;44.032;20.900;2024-03-08T06:49:17;7.50;99.90
50544;DHT22;41176;44.032;20.900;2024-03-08T06:51:42;7.50;99.90
50544;DHT22;41176;44.032;20.900;2024-03-08T06:54:08;7.60;99.90
50544;DHT22;41176;44.032;20.900;2024-03-08T06:56:37;7.60;99.90
50544;DHT22;41176;44.032;20.900;2024-03-08T06:59:03;7.60;99.90
50544;DHT22;41176;44.032;20.900;2024-03-08T07:01:29;7.70;99.90
50544;DHT22;41176;44.032;20.900;2024-03-08T07:03:59;7.70;99.90
50544;DHT22;41176;44.032;20.900;2024-03-08T07:06:27;7.70;99.90
50544;DHT22;41176;44.032;20.900;2024-03-08T07:08:54;7.70;99.90
50544;DHT22;41176;44.032;20.900;2024-03-08T07:11:20;7.60;99.90
50544;DHT22;41176;44.032;20.900;2024-03-08T07:13:46;7.60;99.90
50544;DHT22;41176;44.032;20.900;2024-03-08T07:16:11;7.60;99.90
50544;DHT22;41176;44.032;20.900;2024-03-08T07:18:37;7.60;99.90
50544;DHT22;41176;44.032;20.900;2024-03-08T07:21:09;7.70;99.90
50544;DHT22;41176;44.032;20.900;2024-03-08T07:23:36;7.60;99.90
50544;DHT22;41176;44.032;20.900;2024-03-08T07:26:39;7.60;99.90
50544;DHT22;41176;44.032;20.900;2024-03-08T07:29:05;7.80;99.90
50544;DHT22;41176;44.032;20.900;2024-03-08T07:31:31;7.70;99.90
50544;DHT22;41176;44.032;20.900;2024-03-08T07:34:10;7.70;99.90
50544;DHT22;41176;44.032;20.900;2024-03-08T07:36:35;7.70;99.90
50544;DHT22;41176;44.032;20.900;2024-03-08T07:39:01;7.70;99.90
50544;DHT22;41176;44.032;20.900;2024-03-08T07:41:27;7.60;99.90
50544;DHT22;41176;44.032;20.900;2024-03-08T07:43:55;7.60;99.90
50544;DHT22;41176;44.032;20.900;2024-03-08T07:46:20;7.60;99.90
50544;DHT22;41176;44.032;20.900;2024-03-08T07:48:46;7.60;99.90
50544;DHT22;41176;44.032;20.900;2024-03-08T07:51:12;7.70;99.90
50544;DHT22;41176;44.032;20.900;2024-03-08T07:53:38;7.70;99.90
50544;DHT22;41176;44.032;20.900;2024-03-08T07:56:04;7.70;99.90
50544;DHT22;41176;44.032;20.900;2024-03-08T07:58:30;7.80;99.90
50544;DHT22;41176;44.032;20.900;2024-03-08T08:00:56;7.70;99.90
50544;DHT22;41176;44.032;20.900;2024-03-08T08:03:22;7.80;99.90
50544;DHT22;41176;44.032;20.900;2024-03-08T08:05:48;7.70;99.90
50544;DHT22;41176;44.032;20.900;2024-03-08T08:08:14;7.70;99.90
50544;DHT22;41176;44.032;20.900;2024-03-08T08:10:40;7.80;99.90
50544;DHT22;41176;44.032;20.900;2024-03-08T08:13:06;7.90;99.90
50544;DHT22;41176;44.032;20.900;2024-03-08T08:15:32;7.80;99.90
50544;DHT22;41176;44.032;20.900;2024-03-08T08:18:00;7.90;99.90
50544;DHT22;41176;44.032;20.900;2024-03-08T08:20:28;8.00;99.90
50544;DHT22;41176;44.032;20.900;2024-03-08T08:22:54;7.90;99.90
50544;DHT22;41176;44.032;20.900;2024-03-08T08:25:21;7.90;99.90
50544;DHT22;41176;44.032;20.900;2024-03-08T08:27:49;8.00;99.90
50544;DHT22;41176;44.032;20.900;2024-03-08T08:30:15;8.10;99.90
50544;DHT22;41176;44.032;20.900;2024-03-08T08:32:41;8.20;99.90
50544;DHT22;41176;44.032;20.900;2024-03-08T08:35:09;8.30;99.90
50544;DHT22;41176;44.032;20.900;2024-03-08T08:37:39;8.40;99.90
50544;DHT22;41176;44.032;20.900;2024-03-08T08:40:05;8.40;99.90
50544;DHT22;41176;44.032;20.900;2024-03-08T08:42:35;8.40;99.90
50544;DHT22;41176;44.032;20.900;2024-03-08T08:45:01;8.50;99.90
50544;DHT22;41176;44.032;20.900;2024-03-08T08:47:27;8.70;99.90
50544;DHT22;41176;44.032;20.900;2024-03-08T08:49:53;8.80;99.90
50544;DHT22;41176;44.032;20.900;2024-03-08T08:52:19;8.80;99.90
50544;DHT22;41176;44.032;20.900;2024-03-08T08:54:45;8.80;99.90
50544;DHT22;41176;44.032;20.900;2024-03-08T08:57:11;8.90;99.90
50544;DHT22;41176;44.032;20.900;2024-03-08T08:59:37;9.00;99.90
50544;DHT22;41176;44.032;20.900;2024-03-08T09:02:06;9.10;99.90
50544;DHT22;41176;44.032;20.900;2024-03-08T09:04:32;9.10;99.90
50544;DHT22;41176;44.032;20.900;2024-03-08T09:06:58;9.20;99.90
50544;DHT22;41176;44.032;20.900;2024-03-08T09:09:23;9.20;99.90
50544;DHT22;41176;44.032;20.900;2024-03-08T09:11:51;9.20;99.90
50544;DHT22;41176;44.032;20.900;2024-03-08T09:14:17;9.30;99.90
50544;DHT22;41176;44.032;20.900;2024-03-08T09:16:42;9.40;99.90
50544;DHT22;41176;44.032;20.900;2024-03-08T09:19:08;9.50;99.90
50544;DHT22;41176;44.032;20.900;2024-03-08T09:21:36;9.60;99.90
50544;DHT22;41176;44.032;20.900;2024-03-08T09:24:03;9.70;99.90
50544;DHT22;41176;44.032;20.900;2024-03-08T09:26:28;9.40;99.90
50544;DHT22;41176;44.032;20.900;2024-03-08T09:28:54;9.50;99.90
50544;DHT22;41176;44.032;20.900;2024-03-08T09:31:21;9.40;99.90
50544;DHT22;41176;44.032;20.900;2024-03-08T09:33:47;9.60;99.90
50544;DHT22;41176;44.032;20.900;2024-03-08T09:36:13;9.70;99.90
50544;DHT22;41176;44.032;20.900;2024-03-08T09:38:40;9.70;99.90
50544;DHT22;41176;44.032;20.900;2024-03-08T09:41:06;9.70;99.90
50544;DHT22;41176;44.032;20.900;2024-03-08T09:43:31;9.90;99.90
50544;DHT22;41176;44.032;20.900;2024-03-08T09:45:58;9.80;99.90
50544;DHT22;41176;44.032;20.900;2024-03-08T09:48:24;9.80;99.90
50544;DHT22;41176;44.032;20.900;2024-03-08T09:50:51;9.90;99.90
50544;DHT22;41176;44.032;20.900;2024-03-08T09:53:17;9.90;99.90
50544;DHT22;41176;44.032;20.900;2024-03-08T09:55:43;10.00;99.90
50544;DHT22;41176;44.032;20.900;2024-03-08T09:58:15;10.40;99.90
50544;DHT22;41176;44.032;20.900;2024-03-08T10:00:41;10.60;99.90
50544;DHT22;41176;44.032;20.900;2024-03-08T10:03:07;11.00;99.90
50544;DHT22;41176;44.032;20.900;2024-03-08T10:05:34;11.10;99.10
50544;DHT22;41176;44.032;20.900;2024-03-08T10:08:00;11.10;97.00
50544;DHT22;41176;44.032;20.900;2024-03-08T10:10:26;11.20;96.70
50544;DHT22;41176;44.032;20.900;2024-03-08T10:12:52;11.20;94.50
50544;DHT22;41176;44.032;20.900;2024-03-08T10:15:18;11.10;93.90
50544;DHT22;41176;44.032;20.900;2024-03-08T10:17:45;11.00;94.10
50544;DHT22;41176;44.032;20.900;2024-03-08T10:20:15;11.10;94.70
50544;DHT22;41176;44.032;20.900;2024-03-08T10:22:42;11.30;94.60
50544;DHT22;41176;44.032;20.900;2024-03-08T10:25:11;11.70;94.50
50544;DHT22;41176;44.032;20.900;2024-03-08T10:27:41;12.00;95.50
50544;DHT22;41176;44.032;20.900;2024-03-08T10:30:14;12.10;91.20
50544;DHT22;41176;44.032;20.900;2024-03-08T10:32:41;11.80;91.90
50544;DHT22;41176;44.032;20.900;2024-03-08T10:35:10;11.90;93.40
50544;DHT22;41176;44.032;20.900;2024-03-08T10:37:45;12.00;91.00
50544;DHT22;41176;44.032;20.900;2024-03-08T10:40:19;12.10;91.70
50544;DHT22;41176;44.032;20.900;2024-03-08T10:42:59;12.10;91.80
50544;DHT22;41176;44.032;20.900;2024-03-08T10:45:40;12.20;90.30
50544;DHT22;41176;44.032;20.900;2024-03-08T10:48:29;12.20;91.30
50544;DHT22;41176;44.032;20.900;2024-03-08T10:51:04;12.30;91.60
50544;DHT22;41176;44.032;20.900;2024-03-08T10:53:30;12.30;91.10
50544;DHT22;41176;44.032;20.900;2024-03-08T10:55:59;12.10;90.20
50544;DHT22;41176;44.032;20.900;2024-03-08T10:58:27;12.00;90.10
50544;DHT22;41176;44.032;20.900;2024-03-08T11:00:54;11.90;88.60
50544;DHT22;41176;44.032;20.900;2024-03-08T11:06:18;11.30;90.00
50544;DHT22;41176;44.032;20.900;2024-03-08T11:08:47;11.50;89.30
50544;DHT22;41176;44.032;20.900;2024-03-08T11:11:29;11.50;90.70
50544;DHT22;41176;44.032;20.900;2024-03-08T11:13:56;11.50;90.50
50544;DHT22;41176;44.032;20.900;2024-03-08T11:18:53;11.70;91.60
50544;DHT22;41176;44.032;20.900;2024-03-08T11:21:19;11.70;88.80
50544;DHT22;41176;44.032;20.900;2024-03-08T11:24:01;11.60;88.80
50544;DHT22;41176;44.032;20.900;2024-03-08T11:26:27;11.50;89.90
50544;DHT22;41176;44.032;20.900;2024-03-08T11:28:53;11.60;89.00
50544;DHT22;41176;44.032;20.900;2024-03-08T11:33:48;11.70;88.60
50544;DHT22;41176;44.032;20.900;2024-03-08T11:38:48;11.90;90.40
50544;DHT22;41176;44.032;20.900;2024-03-08T11:41:18;12.00;90.20
50544;DHT22;41176;44.032;20.900;2024-03-08T11:43:48;12.00;85.00
50544;DHT22;41176;44.032;20.900;2024-03-08T11:46:15;11.90;86.90
50544;DHT22;41176;44.032;20.900;2024-03-08T11:48:42;12.00;89.80
50544;DHT22;41176;44.032;20.900;2024-03-08T11:51:11;12.10;88.30
50544;DHT22;41176;44.032;20.900;2024-03-08T11:53:38;12.20;88.00
50544;DHT22;41176;44.032;20.900;2024-03-08T11:56:07;12.30;88.20
50544;DHT22;41176;44.032;20.900;2024-03-08T11:58:33;12.20;86.20
50544;DHT22;41176;44.032;20.900;2024-03-08T12:01:09;12.30;84.40
50544;DHT22;41176;44.032;20.900;2024-03-08T12:03:41;12.30;84.60
50544;DHT22;41176;44.032;20.900;2024-03-08T12:06:10;12.20;87.10
50544;DHT22;41176;44.032;20.900;2024-03-08T12:08:36;12.50;87.00
50544;DHT22;41176;44.032;20.900;2024-03-08T12:11:05;12.80;87.30
50544;DHT22;41176;44.032;20.900;2024-03-08T12:13:33;12.80;81.00
50544;DHT22;41176;44.032;20.900;2024-03-08T12:16:00;12.90;84.10
50544;DHT22;41176;44.032;20.900;2024-03-08T12:18:26;13.20;81.20
50544;DHT22;41176;44.032;20.900;2024-03-08T12:21:07;13.00;79.10
50544;DHT22;41176;44.032;20.900;2024-03-08T12:23:38;13.10;81.80
50544;DHT22;41176;44.032;20.900;2024-03-08T12:26:15;13.30;82.80
50544;DHT22;41176;44.032;20.900;2024-03-08T12:28:42;13.70;81.70
50544;DHT22;41176;44.032;20.900;2024-03-08T12:31:13;13.70;76.80
50544;DHT22;41176;44.032;20.900;2024-03-08T12:33:53;13.40;76.40
50544;DHT22;41176;44.032;20.900;2024-03-08T12:36:19;13.20;79.90
50544;DHT22;41176;44.032;20.900;2024-03-08T12:38:49;13.30;80.10
50544;DHT22;41176;44.032;20.900;2024-03-08T12:41:18;13.10;76.50
50544;DHT22;41176;44.032;20.900;2024-03-08T12:43:48;13.00;79.90
50544;DHT22;41176;44.032;20.900;2024-03-08T12:46:17;13.00;78.80
50544;DHT22;41176;44.032;20.900;2024-03-08T12:48:43;13.10;80.20
50544;DHT22;41176;44.032;20.900;2024-03-08T12:51:13;13.10;77.50
50544;DHT22;41176;44.032;20.900;2024-03-08T12:53:39;13.00;78.50
50544;DHT22;41176;44.032;20.900;2024-03-08T12:56:06;13.00;76.90
50544;DHT22;41176;44.032;20.900;2024-03-08T12:58:36;12.80;77.40
50544;DHT22;41176;44.032;20.900;2024-03-08T13:01:05;12.70;80.20
50544;DHT22;41176;44.032;20.900;2024-03-08T13:03:33;12.90;78.00
50544;DHT22;41176;44.032;20.900;2024-03-08T13:06:02;13.10;76.90
50544;DHT22;41176;44.032;20.900;2024-03-08T13:08:28;13.30;77.00
50544;DHT22;41176;44.032;20.900;2024-03-08T13:10:55;13.50;78.10
50544;DHT22;41176;44.032;20.900;2024-03-08T13:13:20;13.60;76.70
50544;DHT22;41176;44.032;20.900;2024-03-08T13:15:46;13.70;76.60
50544;DHT22;41176;44.032;20.900;2024-03-08T13:18:12;13.70;76.20
50544;DHT22;41176;44.032;20.900;2024-03-08T13:20:38;13.80;75.90
50544;DHT22;41176;44.032;20.900;2024-03-08T13:23:04;13.60;74.60
50544;DHT22;41176;44.032;20.900;2024-03-08T13:25:31;13.70;75.80
50544;DHT22;41176;44.032;20.900;2024-03-08T13:27:57;13.70;75.80
50544;DHT22;41176;44.032;20.900;2024-03-08T13:30:25;13.80;77.50
50544;DHT22;41176;44.032;20.900;2024-03-08T13:32:55;13.70;74.60
50544;DHT22;41176;44.032;20.900;2024-03-08T13:35:21;13.30;75.30
50544;DHT22;41176;44.032;20.900;2024-03-08T13:37:55;13.10;74.30
50544;DHT22;41176;44.032;20.900;2024-03-08T13:40:21;12.90;77.70
50544;DHT22;41176;44.032;20.900;2024-03-08T13:42:48;13.00;78.90
50544;DHT22;41176;44.032;20.900;2024-03-08T13:45:17;12.80;76.20
50544;DHT22;41176;44.032;20.900;2024-03-08T13:47:48;12.80;78.70
50544;DHT22;41176;44.032;20.900;2024-03-08T13:50:15;12.80;79.80
50544;DHT22;41176;44.032;20.900;2024-03-08T13:52:47;12.90;78.80
50544;DHT22;41176;44.032;20.900;2024-03-08T13:55:18;12.70;78.30
50544;DHT22;41176;44.032;20.900;2024-03-08T13:57:43;12.70;79.00
50544;DHT22;41176;44.032;20.900;2024-03-08T14:00:11;12.70;79.20
50544;DHT22;41176;44.032;20.900;2024-03-08T14:02:38;12.70;78.10
50544;DHT22;41176;44.032;20.900;2024-03-08T14:05:07;12.50;79.00
50544;DHT22;41176;44.032;20.900;2024-03-08T14:07:35;12.40;79.40
50544;DHT22;41176;44.032;20.900;2024-03-08T14:10:01;12.40;80.00
50544;DHT22;41176;44.032;20.900;2024-03-08T14:12:27;12.40;79.00
50544;DHT22;41176;44.032;20.900;2024-03-08T14:14:56;12.40;79.60
50544;DHT22;41176;44.032;20.900;2024-03-08T14:17:25;12.30;77.30
50544;DHT22;41176;44.032;20.900;2024-03-08T14:19:53;12.10;78.00
50544;DHT22;41176;44.032;20.900;2024-03-08T14:22:20;12.00;78.80
50544;DHT22;41176;44.032;20.900;2024-03-08T14:24:46;11.80;77.70
50544;DHT22;41176;44.032;20.900;2024-03-08T14:27:11;11.60;79.10
50544;DHT22;41176;44.032;20.900;2024-03-08T14:29:38;11.60;81.10
50544;DHT22;41176;44.032;20.900;2024-03-08T14:32:05;11.70;81.90
50544;DHT22;41176;44.032;20.900;2024-03-08T14:34:32;11.70;81.20
50544;DHT22;41176;44.032;20.900;2024-03-08T14:37:01;11.70;81.70
50544;DHT22;41176;44.032;20.900;2024-03-08T14:39:31;11.70;79.40
50544;DHT22;41176;44.032;20.900;2024-03-08T14:41:59;11.70;78.60
50544;DHT22;41176;44.032;20.900;2024-03-08T14:44:25;11.70;78.80
50544;DHT22;41176;44.032;20.900;2024-03-08T14:46:53;11.70;78.50
50544;DHT22;41176;44.032;20.900;2024-03-08T14:49:19;12.10;78.60
50544;DHT22;41176;44.032;20.900;2024-03-08T14:51:45;12.40;79.30
50544;DHT22;41176;44.032;20.900;2024-03-08T14:54:11;12.70;76.50
50544;DHT22;41176;44.032;20.900;2024-03-08T14:56:38;13.00;76.30
50544;DHT22;41176;44.032;20.900;2024-03-08T14:59:07;13.10;74.10
50544;DHT22;41176;44.032;20.900;2024-03-08T15:01:33;13.20;77.00
50544;DHT22;41176;44.032;20.900;2024-03-08T15:04:04;13.40;76.00
50544;DHT22;41176;44.032;20.900;2024-03-08T15:06:40;13.40;75.70
50544;DHT22;41176;44.032;20.900;2024-03-08T15:09:05;13.40;75.50
50544;DHT22;41176;44.032;20.900;2024-03-08T15:11:51;13.40;74.90
50544;DHT22;41176;44.032;20.900;2024-03-08T15:14:17;13.20;75.50
50544;DHT22;41176;44.032;20.900;2024-03-08T15:16:45;13.00;74.70
50544;DHT22;41176;44.032;20.900;2024-03-08T15:19:13;12.90;72.90
50544;DHT22;41176;44.032;20.900;2024-03-08T15:21:40;12.80;75.30
50544;DHT22;41176;44.032;20.900;2024-03-08T15:24:10;12.70;73.90
50544;DHT22;41176;44.032;20.900;2024-03-08T15:26:43;12.60;76.40
50544;DHT22;41176;44.032;20.900;2024-03-08T15:29:10;12.60;76.30
50544;DHT22;41176;44.032;20.900;2024-03-08T15:31:38;12.50;76.80
50544;DHT22;41176;44.032;20.900;2024-03-08T15:34:06;12.30;76.30
50544;DHT22;41176;44.032;20.900;2024-03-08T15:36:34;12.10;76.70
50544;DHT22;41176;44.032;20.900;2024-03-08T15:39:00;12.10;76.80